sensor_id;sensor_type;location;lat;lon;timestamp;temperature;humidity
15638;DHT22;26604;53.596;10.042;2023-08-20T00:01:02;18.00;99.90
15638;DHT22;26604;53.596;10.042;2023-08-20T00:03:29;18.00;99.90
15638;DHT22;26604;53.596;10.042;2023-08-20T00:05:57;17.90;99.90
15638;DHT22;26604;53.596;10.042;2023-08-20T00:08:24;17.80;99.90
15638;DHT22;26604;53.596;10.042;2023-08-20T00:10:52;17.80;99.90
15638;DHT22;26604;53.596;10.042;2023-08-20T00:13:19;17.70;99.90
15638;DHT22;26604;53.596;10.042;2023-08-20T00:15:46;17.60;99.90
15638;DHT22;26604;53.596;10.042;2023-08-20T00:18:14;17.60;99.90
15638;DHT22;26604;53.596;10.042;2023-08-20T00:20:41;17.60;99.90
15638;DHT22;26604;53.596;10.042;2023-08-20T00:23:11;17.50;99.90
15638;DHT22;26604;53.596;10.042;2023-08-20T00:25:39;17.50;99.90
15638;DHT22;26604;53.596;10.042;2023-08-20T00:28:07;17.50;99.90
15638;DHT22;26604;53.596;10.042;2023-08-20T00:30:34;17.40;99.90
15638;DHT22;26604;53.596;10.042;2023-08-20T00:33:01;17.50;99.90
15638;DHT22;26604;53.596;10.042;2023-08-20T00:35:28;17.40;99.90
15638;DHT22;26604;53.596;10.042;2023-08-20T00:37:55;17.40;99.90
15638;DHT22;26604;53.596;10.042;2023-08-20T00:40:21;17.40;99.90
15638;DHT22;26604;53.596;10.042;2023-08-20T00:42:48;17.40;99.90
15638;DHT22;26604;53.596;10.042;2023-08-20T00:45:17;17.20;99.90
15638;DHT22;26604;53.596;10.042;2023-08-20T00:47:44;17.20;99.90
15638;DHT22;26604;53.596;10.042;2023-08-20T00:50:11;17.20;99.90
15638;DHT22;26604;53.596;10.042;2023-08-20T00:52:38;17.20;99.90
15638;DHT22;26604;53.596;10.042;2023-08-20T00:55:08;17.10;99.90
15638;DHT22;26604;53.596;10.042;2023-08-20T00:57:35;17.00;99.90
15638;DHT22;26604;53.596;10.042;2023-08-20T01:00:03;17.00;99.90
15638;DHT22;26604;53.596;10.042;2023-08-20T01:02:36;17.00;99.90
15638;DHT22;26604;53.596;10.042;2023-08-20T01:05:04;17.00;99.90
15638;DHT22;26604;53.596;10.042;2023-08-20T01:07:39;16.90;99.90
15638;DHT22;26604;53.596;10.042;2023-08-20T01:10:21;16.80;99.90
15638;DHT22;26604;53.596;10.042;2023-08-20T01:12:51;16.70;99.90
15638;DHT22;26604;53.596;10.042;2023-08-20T01:15:18;16.70;99.90
15638;DHT22;26604;53.596;10.042;2023-08-20T01:17:48;16.70;99.90
15638;DHT22;26604;53.596;10.042;2023-08-20T01:20:15;16.60;99.90
15638;DHT22;26604;53.596;10.042;2023-08-20T01:22:56;16.60;99.90
15638;DHT22;26604;53.596;10.042;2023-08-20T01:25:33;16.50;99.90
15638;DHT22;26604;53.596;10.042;2023-08-20T01:28:19;16.40;99.90
15638;DHT22;26604;53.596;10.042;2023-08-20T01:30:46;16.40;99.90
15638;DHT22;26604;53.596;10.042;2023-08-20T01:33:14;16.40;99.90
15638;DHT22;26604;53.596;10.042;2023-08-20T01:35:41;16.40;99.90
15638;DHT22;26604;53.596;10.042;2023-08-20T01:38:08;16.40;99.90
15638;DHT22;26604;53.596;10.042;2023-08-20T01:40:35;16.40;99.90
15638;DHT22;26604;53.596;10.042;2023-08-20T01:43:02;16.40;99.90
15638;DHT22;26604;53.596;10.042;2023-08-20T01:45:30;16.30;99.90
15638;DHT22;26604;53.596;10.042;2023-08-20T01:47:57;16.20;99.90
15638;DHT22;26604;53.596;10.042;2023-08-20T01:50:24;16.20;99.90
15638;DHT22;26604;53.596;10.042;2023-08-20T01:52:51;16.20;99.90
15638;DHT22;26604;53.596;10.042;2023-08-20T01:55:17;16.20;99.90
15638;DHT22;26604;53.596;10.042;2023-08-20T01:57:44;16.20;99.90
15638;DHT22;26604;53.596;10.042;2023-08-20T02:00:12;16.20;99.90
15638;DHT22;26604;53.596;10.042;2023-08-20T02:02:41;16.10;99.90
15638;DHT22;26604;53.596;10.042;2023-08-20T02:05:08;16.10;99.90
15638;DHT22;26604;53.596;10.042;2023-08-20T02:07:36;16.10;99.90
15638;DHT22;26604;53.596;10.042;2023-08-20T02:10:04;16.00;99.90
15638;DHT22;26604;53.596;10.042;2023-08-20T02:12:31;16.00;99.90
15638;DHT22;26604;53.596;10.042;2023-08-20T02:14:58;16.00;99.90
15638;DHT22;26604;53.596;10.042;2023-08-20T02:17:24;15.90;99.90
15638;DHT22;26604;53.596;10.042;2023-08-20T02:19:53;15.90;99.90
15638;DHT22;26604;53.596;10.042;2023-08-20T02:22:20;15.90;99.90
15638;DHT22;26604;53.596;10.042;2023-08-20T02:24:46;15.90;99.90
15638;DHT22;26604;53.596;10.042;2023-08-20T02:27:13;15.90;99.90
15638;DHT22;26604;53.596;10.042;2023-08-20T02:29:40;15.90;99.90
15638;DHT22;26604;53.596;10.042;2023-08-20T02:32:07;15.90;99.90
15638;DHT22;26604;53.596;10.042;2023-08-20T02:34:34;15.90;99.90
15638;DHT22;26604;53.596;10.042;2023-08-20T02:37:02;15.80;99.90
15638;DHT22;26604;53.596;10.042;2023-08-20T02:39:29;15.80;99.90
15638;DHT22;26604;53.596;10.042;2023-08-20T02:41:57;15.80;99.90
15638;DHT22;26604;53.596;10.042;2023-08-20T02:44:23;15.80;99.90
15638;DHT22;26604;53.596;10.042;2023-08-20T02:46:50;15.80;99.90
15638;DHT22;26604;53.596;10.042;2023-08-20T02:49:17;15.70;99.90
15638;DHT22;26604;53.596;10.042;2023-08-20T02:51:44;15.70;99.90
15638;DHT22;26604;53.596;10.042;2023-08-20T02:54:12;15.80;99.90
15638;DHT22;26604;53.596;10.042;2023-08-20T02:56:39;15.70;99.90
15638;DHT22;26604;53.596;10.042;2023-08-20T02:59:06;15.70;99.90
15638;DHT22;26604;53.596;10.042;2023-08-20T03:01:33;15.70;99.90
15638;DHT22;26604;53.596;10.042;2023-08-20T03:04:16;15.70;99.90
15638;DHT22;26604;53.596;10.042;2023-08-20T03:06:43;15.60;99.90
15638;DHT22;26604;53.596;10.042;2023-08-20T03:09:10;15.60;99.90
15638;DHT22;26604;53.596;10.042;2023-08-20T03:11:37;15.60;99.90
15638;DHT22;26604;53.596;10.042;2023-08-20T03:14:04;15.60;99.90
15638;DHT22;26604;53.596;10.042;2023-08-20T03:16:31;15.50;99.90
15638;DHT22;26604;53.596;10.042;2023-08-20T03:18:58;15.50;99.90
15638;DHT22;26604;53.596;10.042;2023-08-20T03:21:26;15.50;99.90
15638;DHT22;26604;53.596;10.042;2023-08-20T03:23:53;15.50;99.90
15638;DHT22;26604;53.596;10.042;2023-08-20T03:26:20;15.50;99.90
15638;DHT22;26604;53.596;10.042;2023-08-20T03:28:47;15.50;99.90
15638;DHT22;26604;53.596;10.042;2023-08-20T03:31:13;15.50;99.90
15638;DHT22;26604;53.596;10.042;2023-08-20T03:33:40;15.50;99.90
15638;DHT22;26604;53.596;10.042;2023-08-20T03:36:07;15.50;99.90
15638;DHT22;26604;53.596;10.042;2023-08-20T03:38:35;15.50;99.90
15638;DHT22;26604;53.596;10.042;2023-08-20T03:41:02;15.50;99.90
15638;DHT22;26604;53.596;10.042;2023-08-20T03:43:29;15.50;99.90
15638;DHT22;26604;53.596;10.042;2023-08-20T03:45:56;15.50;99.90
15638;DHT22;26604;53.596;10.042;2023-08-20T03:48:23;15.50;99.90
15638;DHT22;26604;53.596;10.042;2023-08-20T03:50:50;15.60;99.90
15638;DHT22;26604;53.596;10.042;2023-08-20T03:53:17;15.50;99.90
15638;DHT22;26604;53.596;10.042;2023-08-20T03:55:49;15.50;99.90
15638;DHT22;26604;53.596;10.042;2023-08-20T03:58:16;15.50;99.90
15638;DHT22;26604;53.596;10.042;2023-08-20T04:00:43;15.40;99.90
15638;DHT22;26604;53.596;10.042;2023-08-20T04:03:10;15.40;99.90
15638;DHT22;26604;53.596;10.042;2023-08-20T04:05:38;15.40;99.90
15638;DHT22;26604;53.596;10.042;2023-08-20T04:08:06;15.40;99.90
15638;DHT22;26604;53.596;10.042;2023-08-20T04:10:33;15.40;99.90
15638;DHT22;26604;53.596;10.042;2023-08-20T04:13:01;15.40;99.90
15638;DHT22;26604;53.596;10.042;2023-08-20T04:15:28;15.40;99.90
15638;DHT22;26604;53.596;10.042;2023-08-20T04:17:55;15.40;99.90
15638;DHT22;26604;53.596;10.042;2023-08-20T04:20:23;15.40;99.90
15638;DHT22;26604;53.596;10.042;2023-08-20T04:22:50;15.40;99.90
15638;DHT22;26604;53.596;10.042;2023-08-20T04:25:17;15.40;99.90
15638;DHT22;26604;53.596;10.042;2023-08-20T04:27:44;15.40;99.90
15638;DHT22;26604;53.596;10.042;2023-08-20T04:30:13;15.50;99.90
15638;DHT22;26604;53.596;10.042;2023-08-20T04:32:40;15.50;99.90
15638;DHT22;26604;53.596;10.042;2023-08-20T04:35:07;15.50;99.90
15638;DHT22;26604;53.596;10.042;2023-08-20T04:37:35;15.70;99.90
15638;DHT22;26604;53.596;10.042;2023-08-20T04:40:03;15.80;99.90
15638;DHT22;26604;53.596;10.042;2023-08-20T04:42:31;16.00;99.90
15638;DHT22;26604;53.596;10.042;2023-08-20T04:44:58;16.10;99.90
15638;DHT22;26604;53.596;10.042;2023-08-20T04:47:26;16.20;99.90
15638;DHT22;26604;53.596;10.042;2023-08-20T04:49:53;16.40;99.90
15638;DHT22;26604;53.596;10.042;2023-08-20T04:52:20;16.50;99.90
15638;DHT22;26604;53.596;10.042;2023-08-20T04:54:47;16.60;99.90
15638;DHT22;26604;53.596;10.042;2023-08-20T04:57:14;16.70;99.90
15638;DHT22;26604;53.596;10.042;2023-08-20T04:59:41;16.90;99.90
15638;DHT22;26604;53.596;10.042;2023-08-20T05:02:10;17.00;99.90
15638;DHT22;26604;53.596;10.042;2023-08-20T05:04:39;17.10;99.90
15638;DHT22;26604;53.596;10.042;2023-08-20T05:07:06;17.20;99.90
15638;DHT22;26604;53.596;10.042;2023-08-20T05:09:33;17.30;99.90
15638;DHT22;26604;53.596;10.042;2023-08-20T05:12:00;17.30;99.90
15638;DHT22;26604;53.596;10.042;2023-08-20T05:14:28;17.50;99.90
15638;DHT22;26604;53.596;10.042;2023-08-20T05:16:55;17.70;99.90
15638;DHT22;26604;53.596;10.042;2023-08-20T05:19:25;17.80;99.90
15638;DHT22;26604;53.596;10.042;2023-08-20T05:21:53;17.90;99.90
15638;DHT22;26604;53.596;10.042;2023-08-20T05:24:21;17.90;99.90
15638;DHT22;26604;53.596;10.042;2023-08-20T05:27:03;17.90;99.90
15638;DHT22;26604;53.596;10.042;2023-08-20T05:29:30;18.00;99.90
15638;DHT22;26604;53.596;10.042;2023-08-20T05:31:57;18.10;99.90
15638;DHT22;26604;53.596;10.042;2023-08-20T05:34:24;18.20;99.90
15638;DHT22;26604;53.596;10.042;2023-08-20T05:36:52;18.20;99.90
15638;DHT22;26604;53.596;10.042;2023-08-20T05:39:19;18.30;99.90
15638;DHT22;26604;53.596;10.042;2023-08-20T05:41:46;18.40;99.90
15638;DHT22;26604;53.596;10.042;2023-08-20T05:44:13;18.50;99.90
15638;DHT22;26604;53.596;10.042;2023-08-20T05:46:40;18.60;99.90
15638;DHT22;26604;53.596;10.042;2023-08-20T05:49:07;18.60;99.90
15638;DHT22;26604;53.596;10.042;2023-08-20T05:51:34;18.70;99.90
15638;DHT22;26604;53.596;10.042;2023-08-20T05:54:02;18.70;99.90
15638;DHT22;26604;53.596;10.042;2023-08-20T05:56:29;18.90;99.90
15638;DHT22;26604;53.596;10.042;2023-08-20T05:58:56;19.00;99.90
15638;DHT22;26604;53.596;10.042;2023-08-20T06:01:23;19.10;99.90
15638;DHT22;26604;53.596;10.042;2023-08-20T06:03:50;19.20;99.90
15638;DHT22;26604;53.596;10.042;2023-08-20T06:06:16;19.30;99.90
15638;DHT22;26604;53.596;10.042;2023-08-20T06:08:43;19.40;99.90
15638;DHT22;26604;53.596;10.042;2023-08-20T06:11:12;19.60;99.90
15638;DHT22;26604;53.596;10.042;2023-08-20T06:13:38;19.80;99.90
15638;DHT22;26604;53.596;10.042;2023-08-20T06:16:07;19.90;99.90
15638;DHT22;26604;53.596;10.042;2023-08-20T06:18:34;19.90;99.90
15638;DHT22;26604;53.596;10.042;2023-08-20T06:21:02;19.90;99.90
15638;DHT22;26604;53.596;10.042;2023-08-20T06:23:29;19.90;99.90
15638;DHT22;26604;53.596;10.042;2023-08-20T06:25:56;19.90;99.90
15638;DHT22;26604;53.596;10.042;2023-08-20T06:28:25;19.90;99.90
15638;DHT22;26604;53.596;10.042;2023-08-20T06:30:52;19.90;99.90
15638;DHT22;26604;53.596;10.042;2023-08-20T06:33:18;19.80;99.90
15638;DHT22;26604;53.596;10.042;2023-08-20T06:35:45;19.80;99.90
15638;DHT22;26604;53.596;10.042;2023-08-20T06:38:12;19.70;99.90
15638;DHT22;26604;53.596;10.042;2023-08-20T06:40:40;19.60;99.90
15638;DHT22;26604;53.596;10.042;2023-08-20T06:43:06;19.60;99.90
15638;DHT22;26604;53.596;10.042;2023-08-20T06:45:35;19.80;99.90
15638;DHT22;26604;53.596;10.042;2023-08-20T06:48:02;20.10;99.90
15638;DHT22;26604;53.596;10.042;2023-08-20T06:50:28;20.30;99.90
15638;DHT22;26604;53.596;10.042;2023-08-20T06:52:55;20.50;99.90
15638;DHT22;26604;53.596;10.042;2023-08-20T06:55:22;20.80;99.90
15638;DHT22;26604;53.596;10.042;2023-08-20T06:57:49;20.90;99.90
15638;DHT22;26604;53.596;10.042;2023-08-20T07:00:19;21.00;99.90
15638;DHT22;26604;53.596;10.042;2023-08-20T07:02:47;21.00;99.90
15638;DHT22;26604;53.596;10.042;2023-08-20T07:05:14;21.00;99.90
15638;DHT22;26604;53.596;10.042;2023-08-20T07:07:41;20.90;99.90
15638;DHT22;26604;53.596;10.042;2023-08-20T07:10:08;20.90;99.90
15638;DHT22;26604;53.596;10.042;2023-08-20T07:12:36;20.80;99.90
15638;DHT22;26604;53.596;10.042;2023-08-20T07:15:03;20.90;99.90
15638;DHT22;26604;53.596;10.042;2023-08-20T07:17:30;20.90;99.90
15638;DHT22;26604;53.596;10.042;2023-08-20T07:19:58;20.90;99.90
15638;DHT22;26604;53.596;10.042;2023-08-20T07:22:25;20.90;99.90
15638;DHT22;26604;53.596;10.042;2023-08-20T07:24:52;20.90;99.90
15638;DHT22;26604;53.596;10.042;2023-08-20T07:27:19;20.80;99.90
15638;DHT22;26604;53.596;10.042;2023-08-20T07:29:46;20.80;99.90
15638;DHT22;26604;53.596;10.042;2023-08-20T07:32:13;20.70;99.90
15638;DHT22;26604;53.596;10.042;2023-08-20T07:34:39;20.70;99.90
15638;DHT22;26604;53.596;10.042;2023-08-20T07:37:08;20.60;99.90
15638;DHT22;26604;53.596;10.042;2023-08-20T07:39:34;20.60;99.90
15638;DHT22;26604;53.596;10.042;2023-08-20T07:42:02;20.70;99.90
15638;DHT22;26604;53.596;10.042;2023-08-20T07:44:29;20.80;99.90
15638;DHT22;26604;53.596;10.042;2023-08-20T07:46:56;21.10;99.90
15638;DHT22;26604;53.596;10.042;2023-08-20T07:49:22;21.30;99.90
15638;DHT22;26604;53.596;10.042;2023-08-20T07:51:49;21.50;99.90
15638;DHT22;26604;53.596;10.042;2023-08-20T07:54:19;21.80;99.90
15638;DHT22;26604;53.596;10.042;2023-08-20T07:56:46;22.00;99.90
15638;DHT22;26604;53.596;10.042;2023-08-20T07:59:13;22.20;99.90
15638;DHT22;26604;53.596;10.042;2023-08-20T08:01:39;22.10;99.90
15638;DHT22;26604;53.596;10.042;2023-08-20T08:04:06;21.90;99.90
15638;DHT22;26604;53.596;10.042;2023-08-20T08:06:33;21.70;99.90
15638;DHT22;26604;53.596;10.042;2023-08-20T08:09:21;21.60;99.90
15638;DHT22;26604;53.596;10.042;2023-08-20T08:11:48;21.60;99.90
15638;DHT22;26604;53.596;10.042;2023-08-20T08:14:15;21.60;99.90
15638;DHT22;26604;53.596;10.042;2023-08-20T08:16:42;21.60;99.90
15638;DHT22;26604;53.596;10.042;2023-08-20T08:19:09;21.60;99.90
15638;DHT22;26604;53.596;10.042;2023-08-20T08:21:36;21.60;99.90
15638;DHT22;26604;53.596;10.042;2023-08-20T08:24:04;21.60;99.90
15638;DHT22;26604;53.596;10.042;2023-08-20T08:26:34;21.60;99.90
15638;DHT22;26604;53.596;10.042;2023-08-20T08:29:01;21.60;99.90
15638;DHT22;26604;53.596;10.042;2023-08-20T08:31:30;21.60;99.90
15638;DHT22;26604;53.596;10.042;2023-08-20T08:33:57;21.70;99.90
15638;DHT22;26604;53.596;10.042;2023-08-20T08:36:24;21.70;99.90
15638;DHT22;26604;53.596;10.042;2023-08-20T08:38:51;21.70;99.90
15638;DHT22;26604;53.596;10.042;2023-08-20T08:41:21;21.80;99.90
15638;DHT22;26604;53.596;10.042;2023-08-20T08:43:51;21.80;99.90
15638;DHT22;26604;53.596;10.042;2023-08-20T08:46:24;21.90;99.90
15638;DHT22;26604;53.596;10.042;2023-08-20T08:48:52;22.00;99.90
15638;DHT22;26604;53.596;10.042;2023-08-20T08:51:19;22.00;99.90
15638;DHT22;26604;53.596;10.042;2023-08-20T08:53:46;22.00;99.90
15638;DHT22;26604;53.596;10.042;2023-08-20T08:56:13;22.00;99.90
15638;DHT22;26604;53.596;10.042;2023-08-20T08:58:40;21.90;99.90
15638;DHT22;26604;53.596;10.042;2023-08-20T09:01:08;22.00;99.90
15638;DHT22;26604;53.596;10.042;2023-08-20T09:03:35;22.00;99.90
15638;DHT22;26604;53.596;10.042;2023-08-20T09:06:08;22.00;99.90
15638;DHT22;26604;53.596;10.042;2023-08-20T09:08:35;22.10;99.90
15638;DHT22;26604;53.596;10.042;2023-08-20T09:11:02;22.10;99.90
15638;DHT22;26604;53.596;10.042;2023-08-20T09:13:33;22.10;99.90
15638;DHT22;26604;53.596;10.042;2023-08-20T09:16:03;22.20;99.90
15638;DHT22;26604;53.596;10.042;2023-08-20T09:18:38;22.30;99.90
15638;DHT22;26604;53.596;10.042;2023-08-20T09:21:06;22.40;99.90
15638;DHT22;26604;53.596;10.042;2023-08-20T09:23:34;22.50;99.90
15638;DHT22;26604;53.596;10.042;2023-08-20T09:26:05;22.60;99.90
15638;DHT22;26604;53.596;10.042;2023-08-20T09:28:40;22.70;99.90
15638;DHT22;26604;53.596;10.042;2023-08-20T09:31:07;22.80;99.90
15638;DHT22;26604;53.596;10.042;2023-08-20T09:33:36;22.70;99.90
15638;DHT22;26604;53.596;10.042;2023-08-20T09:36:03;22.70;99.90
15638;DHT22;26604;53.596;10.042;2023-08-20T09:38:36;22.70;99.90
15638;DHT22;26604;53.596;10.042;2023-08-20T09:41:04;22.80;99.90
15638;DHT22;26604;53.596;10.042;2023-08-20T09:43:33;22.80;99.90
15638;DHT22;26604;53.596;10.042;2023-08-20T09:46:02;22.90;99.90
15638;DHT22;26604;53.596;10.042;2023-08-20T09:48:33;23.00;99.90
15638;DHT22;26604;53.596;10.042;2023-08-20T09:51:05;23.20;99.90
15638;DHT22;26604;53.596;10.042;2023-08-20T09:53:35;23.30;99.90
15638;DHT22;26604;53.596;10.042;2023-08-20T09:56:09;23.50;99.90
15638;DHT22;26604;53.596;10.042;2023-08-20T09:58:37;23.70;99.90
15638;DHT22;26604;53.596;10.042;2023-08-20T10:01:04;23.90;99.90
15638;DHT22;26604;53.596;10.042;2023-08-20T10:03:32;24.10;99.90
15638;DHT22;26604;53.596;10.042;2023-08-20T10:06:01;24.20;99.90
15638;DHT22;26604;53.596;10.042;2023-08-20T10:08:29;24.30;99.90
15638;DHT22;26604;53.596;10.042;2023-08-20T10:10:56;24.40;99.90
15638;DHT22;26604;53.596;10.042;2023-08-20T10:13:23;24.40;99.90
15638;DHT22;26604;53.596;10.042;2023-08-20T10:15:51;24.60;99.90
15638;DHT22;26604;53.596;10.042;2023-08-20T10:18:20;24.70;99.90
15638;DHT22;26604;53.596;10.042;2023-08-20T10:20:49;24.80;99.90
15638;DHT22;26604;53.596;10.042;2023-08-20T10:23:20;25.00;99.90
15638;DHT22;26604;53.596;10.042;2023-08-20T10:25:48;25.10;99.90
15638;DHT22;26604;53.596;10.042;2023-08-20T10:28:20;25.30;91.20
15638;DHT22;26604;53.596;10.042;2023-08-20T10:31:04;25.40;97.20
15638;DHT22;26604;53.596;10.042;2023-08-20T10:33:33;25.20;81.30
15638;DHT22;26604;53.596;10.042;2023-08-20T10:36:07;25.10;99.90
15638;DHT22;26604;53.596;10.042;2023-08-20T10:38:37;25.00;99.90
15638;DHT22;26604;53.596;10.042;2023-08-20T10:41:09;24.80;95.30
15638;DHT22;26604;53.596;10.042;2023-08-20T10:43:38;25.00;81.10
15638;DHT22;26604;53.596;10.042;2023-08-20T10:46:07;25.00;99.90
15638;DHT22;26604;53.596;10.042;2023-08-20T10:48:35;25.10;99.90
15638;DHT22;26604;53.596;10.042;2023-08-20T10:51:12;25.20;99.90
15638;DHT22;26604;53.596;10.042;2023-08-20T10:53:42;25.40;99.10
15638;DHT22;26604;53.596;10.042;2023-08-20T10:56:16;25.60;56.10
15638;DHT22;26604;53.596;10.042;2023-08-20T10:58:47;25.80;37.20
15638;DHT22;26604;53.596;10.042;2023-08-20T11:01:20;26.00;42.60
15638;DHT22;26604;53.596;10.042;2023-08-20T11:03:48;26.20;3.20
15638;DHT22;26604;53.596;10.042;2023-08-20T11:06:15;26.20;27.60
15638;DHT22;26604;53.596;10.042;2023-08-20T11:08:44;26.30;16.40
15638;DHT22;26604;53.596;10.042;2023-08-20T11:11:12;26.60;12.20
15638;DHT22;26604;53.596;10.042;2023-08-20T11:13:39;26.80;16.70
15638;DHT22;26604;53.596;10.042;2023-08-20T11:16:08;27.10;1.00
15638;DHT22;26604;53.596;10.042;2023-08-20T11:18:36;27.30;1.00
15638;DHT22;26604;53.596;10.042;2023-08-20T11:21:03;27.20;1.00
15638;DHT22;26604;53.596;10.042;2023-08-20T11:23:31;27.10;1.00
15638;DHT22;26604;53.596;10.042;2023-08-20T11:25:59;27.20;1.00
15638;DHT22;26604;53.596;10.042;2023-08-20T11:28:27;27.40;1.00
15638;DHT22;26604;53.596;10.042;2023-08-20T11:30:55;27.40;1.00
15638;DHT22;26604;53.596;10.042;2023-08-20T11:33:23;27.50;1.00
15638;DHT22;26604;53.596;10.042;2023-08-20T11:35:51;27.50;1.00
15638;DHT22;26604;53.596;10.042;2023-08-20T11:38:20;27.50;1.00
15638;DHT22;26604;53.596;10.042;2023-08-20T11:40:48;27.70;1.00
15638;DHT22;26604;53.596;10.042;2023-08-20T11:43:16;27.40;1.00
15638;DHT22;26604;53.596;10.042;2023-08-20T11:45:47;26.90;1.00
15638;DHT22;26604;53.596;10.042;2023-08-20T11:48:15;26.80;1.00
15638;DHT22;26604;53.596;10.042;2023-08-20T11:50:42;26.60;1.00
15638;DHT22;26604;53.596;10.042;2023-08-20T11:53:09;26.50;1.00
15638;DHT22;26604;53.596;10.042;2023-08-20T11:55:40;26.30;1.00
15638;DHT22;26604;53.596;10.042;2023-08-20T11:58:11;26.30;1.00
15638;DHT22;26604;53.596;10.042;2023-08-20T12:00:39;26.30;1.00
15638;DHT22;26604;53.596;10.042;2023-08-20T12:03:08;26.30;4.80
15638;DHT22;26604;53.596;10.042;2023-08-20T12:05:35;26.30;12.80
15638;DHT22;26604;53.596;10.042;2023-08-20T12:08:03;26.40;3.00
15638;DHT22;26604;53.596;10.042;2023-08-20T12:10:31;26.50;3.10
15638;DHT22;26604;53.596;10.042;2023-08-20T12:12:59;26.60;1.00
15638;DHT22;26604;53.596;10.042;2023-08-20T12:15:28;26.60;1.00
15638;DHT22;26604;53.596;10.042;2023-08-20T12:17:57;26.80;1.00
15638;DHT22;26604;53.596;10.042;2023-08-20T12:20:27;26.90;1.00
15638;DHT22;26604;53.596;10.042;2023-08-20T12:22:56;26.90;1.00
15638;DHT22;26604;53.596;10.042;2023-08-20T12:25:23;26.80;1.00
15638;DHT22;26604;53.596;10.042;2023-08-20T12:27:50;26.60;1.00
15638;DHT22;26604;53.596;10.042;2023-08-20T12:30:17;26.60;1.00
15638;DHT22;26604;53.596;10.042;2023-08-20T12:32:43;26.80;1.00
15638;DHT22;26604;53.596;10.042;2023-08-20T12:35:12;26.80;1.00
15638;DHT22;26604;53.596;10.042;2023-08-20T12:37:39;26.80;1.00
15638;DHT22;26604;53.596;10.042;2023-08-20T12:40:06;26.90;1.00
15638;DHT22;26604;53.596;10.042;2023-08-20T12:42:36;27.10;1.00
15638;DHT22;26604;53.596;10.042;2023-08-20T12:45:08;27.20;1.00
15638;DHT22;26604;53.596;10.042;2023-08-20T12:47:36;27.50;1.00
15638;DHT22;26604;53.596;10.042;2023-08-20T12:50:03;27.70;1.00
15638;DHT22;26604;53.596;10.042;2023-08-20T12:52:32;28.00;1.00
15638;DHT22;26604;53.596;10.042;2023-08-20T12:54:59;28.00;1.00
15638;DHT22;26604;53.596;10.042;2023-08-20T12:57:26;27.70;1.00
15638;DHT22;26604;53.596;10.042;2023-08-20T12:59:53;27.50;1.00
15638;DHT22;26604;53.596;10.042;2023-08-20T13:02:20;27.50;1.00
15638;DHT22;26604;53.596;10.042;2023-08-20T13:04:48;27.50;1.00
15638;DHT22;26604;53.596;10.042;2023-08-20T13:07:16;27.50;1.00
15638;DHT22;26604;53.596;10.042;2023-08-20T13:09:45;27.40;1.00
15638;DHT22;26604;53.596;10.042;2023-08-20T13:12:12;27.30;1.00
15638;DHT22;26604;53.596;10.042;2023-08-20T13:14:40;27.20;1.00
15638;DHT22;26604;53.596;10.042;2023-08-20T13:17:08;27.00;1.00
15638;DHT22;26604;53.596;10.042;2023-08-20T13:19:35;27.00;1.00
15638;DHT22;26604;53.596;10.042;2023-08-20T13:22:02;26.80;1.00
15638;DHT22;26604;53.596;10.042;2023-08-20T13:24:29;26.60;1.00
15638;DHT22;26604;53.596;10.042;2023-08-20T13:26:57;26.40;1.00
15638;DHT22;26604;53.596;10.042;2023-08-20T13:29:24;26.20;1.00
15638;DHT22;26604;53.596;10.042;2023-08-20T13:31:51;26.20;1.00
15638;DHT22;26604;53.596;10.042;2023-08-20T13:34:18;26.20;1.00
15638;DHT22;26604;53.596;10.042;2023-08-20T13:36:45;26.00;1.00
15638;DHT22;26604;53.596;10.042;2023-08-20T13:39:13;25.90;1.00
15638;DHT22;26604;53.596;10.042;2023-08-20T13:41:40;25.90;1.00
15638;DHT22;26604;53.596;10.042;2023-08-20T13:44:08;26.00;1.00
15638;DHT22;26604;53.596;10.042;2023-08-20T13:46:35;26.10;1.00
15638;DHT22;26604;53.596;10.042;2023-08-20T13:49:03;26.20;1.00
15638;DHT22;26604;53.596;10.042;2023-08-20T13:51:29;26.40;1.00
15638;DHT22;26604;53.596;10.042;2023-08-20T13:53:56;26.40;1.00
15638;DHT22;26604;53.596;10.042;2023-08-20T13:56:23;26.40;1.00
15638;DHT22;26604;53.596;10.042;2023-08-20T13:58:51;26.30;1.00
15638;DHT22;26604;53.596;10.042;2023-08-20T14:01:19;26.40;1.00
15638;DHT22;26604;53.596;10.042;2023-08-20T14:03:46;26.50;1.00
15638;DHT22;26604;53.596;10.042;2023-08-20T14:06:14;26.50;1.00
15638;DHT22;26604;53.596;10.042;2023-08-20T14:08:42;26.50;1.00
15638;DHT22;26604;53.596;10.042;2023-08-20T14:11:09;26.50;1.00
15638;DHT22;26604;53.596;10.042;2023-08-20T14:13:36;26.40;1.00
15638;DHT22;26604;53.596;10.042;2023-08-20T14:16:03;26.30;1.00
15638;DHT22;26604;53.596;10.042;2023-08-20T14:18:31;26.40;1.00
15638;DHT22;26604;53.596;10.042;2023-08-20T14:20:58;26.40;1.00
15638;DHT22;26604;53.596;10.042;2023-08-20T14:23:35;26.40;1.00
15638;DHT22;26604;53.596;10.042;2023-08-20T14:26:06;26.30;1.00
15638;DHT22;26604;53.596;10.042;2023-08-20T14:28:33;26.10;1.00
15638;DHT22;26604;53.596;10.042;2023-08-20T14:31:02;26.10;1.00
15638;DHT22;26604;53.596;10.042;2023-08-20T14:33:31;26.20;1.00
15638;DHT22;26604;53.596;10.042;2023-08-20T14:35:58;26.40;1.00
15638;DHT22;26604;53.596;10.042;2023-08-20T14:38:25;26.40;1.00
15638;DHT22;26604;53.596;10.042;2023-08-20T14:40:52;26.30;1.00
15638;DHT22;26604;53.596;10.042;2023-08-20T14:43:19;26.20;1.00
15638;DHT22;26604;53.596;10.042;2023-08-20T14:45:46;26.20;1.00
15638;DHT22;26604;53.596;10.042;2023-08-20T14:48:12;26.20;1.00
15638;DHT22;26604;53.596;10.042;2023-08-20T14:50:41;26.30;1.00
15638;DHT22;26604;53.596;10.042;2023-08-20T14:53:07;26.40;1.00
15638;DHT22;26604;53.596;10.042;2023-08-20T14:55:34;26.40;1.00
15638;DHT22;26604;53.596;10.042;2023-08-20T14:58:01;26.50;1.00
15638;DHT22;26604;53.596;10.042;2023-08-20T15:00:31;26.40;1.00
15638;DHT22;26604;53.596;10.042;2023-08-20T15:02:58;26.30;1.00
15638;DHT22;26604;53.596;10.042;2023-08-20T15:05:26;26.40;1.00
15638;DHT22;26604;53.596;10.042;2023-08-20T15:07:54;26.40;1.00
15638;DHT22;26604;53.596;10.042;2023-08-20T15:10:21;26.50;1.00
15638;DHT22;26604;53.596;10.042;2023-08-20T15:12:48;26.50;1.00
15638;DHT22;26604;53.596;10.042;2023-08-20T15:15:15;26.50;1.00
15638;DHT22;26604;53.596;10.042;2023-08-20T15:17:45;26.40;1.00
15638;DHT22;26604;53.596;10.042;2023-08-20T15:20:12;26.30;1.00
15638;DHT22;26604;53.596;10.042;2023-08-20T15:22:39;26.10;1.00
15638;DHT22;26604;53.596;10.042;2023-08-20T15:25:08;26.00;1.00